Carterville, Illinois
Current Conditions -  °F | °C
As of 7:53 AM on Monday 26 Jan 2015 (Local Time) from KMWA Reporting Station
Broken Clouds Broken Clouds  
Wind Chill: 20°   Ceiling: 25000
Heat Index: 28°   Visibility: 20mi
Dew Point: 21°   Wind: 9mph
Humidity: 74%   Direction: 310°NW
Pressure: 30.07"   Gusts: NA
Location:  37.76°N, 89.08°W
Report Text: KMWA 261353Z 31008KT 20SM SCT015 BKN250 M02/M06 A3007
Loading
Personal Weather Stations






























Interactive Weather Map New forecast layout! Learn more

10-Day Weather Forecast

Advertisements
Track Severe Weather on mobile